Time;durP1;ratioP1;P1;durP2;ratioP2;P2;SDS_P1;SDS_P2;PMS_P1;PMS_P2;Temp;Humidity;BMP_temperature;BMP_pressure;BME280_temperature;BME280_humidity;BME280_pressure;Samples;Min_cycle;Max_cycle;Signal;HPM_P1;HPM_P2
2021/12/18 00:00:59;;;;;;;42.95;27.35;;;3.70;81.20;;;1.66;92.70;97948.56;4968187;28;20161;-67
2021/12/18 00:03:25;;;;;;;43.80;27.83;;;3.70;81.20;;;1.67;93.03;97949.38;4952600;28;20035;-68
2021/12/18 00:05:51;;;;;;;39.65;25.80;;;3.80;81.40;;;1.66;92.66;97943.38;4953418;28;20126;-67
2021/12/18 00:08:17;;;;;;;41.63;27.33;;;3.80;81.00;;;1.67;93.15;97944.19;4952702;28;20043;-67
2021/12/18 00:10:45;;;;;;;43.05;27.92;;;3.80;81.40;;;1.67;93.03;97939.03;4952001;28;20422;-67
2021/12/18 00:13:12;;;;;;;43.83;27.52;;;3.80;81.20;;;1.67;93.36;97939.84;4967762;28;20123;-67
2021/12/18 00:15:38;;;;;;;45.85;28.30;;;3.80;81.30;;;1.67;93.24;97950.22;4969963;28;20378;-67
2021/12/18 00:18:03;;;;;;;45.38;28.75;;;3.80;81.20;;;1.67;92.83;97955.41;4960295;28;20045;-67
2021/12/18 00:20:30;;;;;;;42.47;27.67;;;3.70;81.40;;;1.64;93.18;97950.41;4964593;28;20045;-67
2021/12/18 00:22:56;;;;;;;42.15;27.40;;;3.70;81.50;;;1.62;92.90;97957.44;4952714;28;20065;-67
2021/12/18 00:25:22;;;;;;;45.15;29.13;;;3.70;81.60;;;1.60;92.98;97954.09;4952208;28;20062;-67
2021/12/18 00:27:48;;;;;;;44.67;27.75;;;3.60;81.80;;;1.60;93.80;97963.66;4952027;28;20791;-68
2021/12/18 00:30:14;;;;;;;42.15;27.52;;;3.70;81.70;;;1.59;93.07;97961.97;4967532;28;20049;-68
2021/12/18 00:32:40;;;;;;;45.38;28.85;;;3.70;81.70;;;1.59;93.29;97962.81;4952930;28;20038;-67
2021/12/18 00:35:06;;;;;;;52.72;30.48;;;3.70;81.60;;;1.59;93.27;97965.41;4968013;28;20482;-67
2021/12/18 00:37:32;;;;;;;46.28;28.95;;;3.70;81.80;;;1.59;93.29;97968.00;4968744;28;20047;-67
2021/12/18 00:40:00;;;;;;;46.63;29.05;;;3.70;81.80;;;1.57;94.06;97964.63;4936147;28;20138;-68
2021/12/18 00:45:11;;;;;;;41.88;26.58;;;3.60;82.00;;;1.54;93.68;97964.81;4967614;28;20177;-67
2021/12/18 00:47:37;;;;;;;41.63;26.17;;;3.60;81.90;;;1.52;93.75;97972.69;4953118;28;20105;-67
2021/12/18 00:50:05;;;;;;;38.97;25.73;;;3.60;81.70;;;1.49;93.87;97966.84;4951525;28;20047;-67
2021/12/18 00:52:31;;;;;;;37.83;24.33;;;3.60;81.80;;;1.47;93.59;97964.31;4967788;28;20035;-67
2021/12/18 00:54:57;;;;;;;37.60;24.35;;;3.60;81.80;;;1.46;94.01;97962.66;4951415;28;20035;-68
2021/12/18 00:57:22;;;;;;;42.03;25.40;;;3.60;81.60;;;1.45;93.80;97966.19;4951342;28;20116;-67
2021/12/18 00:59:51;;;;;;;42.97;26.50;;;3.60;81.60;;;1.46;93.92;97967.00;4967500;28;20039;-68
2021/12/18 01:02:17;;;;;;;45.20;26.50;;;3.60;81.70;;;1.47;93.55;97973.88;4950132;28;20077;-68
2021/12/18 01:04:42;;;;;;;43.47;26.60;;;3.60;81.90;;;1.47;93.93;97981.66;4968778;28;20518;-68
2021/12/18 01:07:08;;;;;;;43.17;26.35;;;3.60;81.80;;;1.48;94.13;97985.91;4950371;28;20039;-68
2021/12/18 01:12:12;;;;;;;40.05;25.98;;;3.60;81.70;;;1.50;94.30;97990.09;4966380;28;20066;-68
2021/12/18 01:14:57;;;;;;;41.72;26.17;;;3.60;81.70;;;1.48;94.12;97988.50;4966947;28;20158;-68
2021/12/18 01:22:48;;;;;;;40.10;24.92;;;3.60;82.00;;;1.46;93.91;98003.31;4966253;28;20505;-67
2021/12/18 01:25:19;;;;;;;38.33;24.55;;;3.60;81.60;;;1.44;94.05;98002.56;4922877;28;20070;-67
2021/12/18 01:27:45;;;;;;;39.55;24.52;;;3.50;81.40;;;1.43;93.55;97998.31;4967385;28;20046;-67
2021/12/18 01:30:12;;;;;;;43.67;27.35;;;3.50;81.80;;;1.43;93.67;97993.97;4966059;28;20038;-68
2021/12/18 01:32:38;;;;;;;45.70;26.90;;;3.50;81.90;;;1.43;93.56;97993.13;4950725;28;20059;-69
2021/12/18 01:35:04;;;;;;;47.35;27.40;;;3.50;82.00;;;1.44;93.75;98005.16;4950251;28;20047;-69
2021/12/18 01:37:30;;;;;;;46.90;28.42;;;3.60;82.00;;;1.45;94.19;98001.66;4950779;28;20046;-68
2021/12/18 01:39:56;;;;;;;50.60;29.00;;;3.60;82.10;;;1.46;94.22;98008.50;4966237;28;20066;-68
2021/12/18 01:53:02;;;;;;;49.63;29.67;;;3.60;82.00;;;1.43;94.30;98000.91;4966082;28;20089;-67
2021/12/18 01:55:32;;;;;;;54.42;30.02;;;3.60;82.20;;;1.42;94.96;97975.88;4965771;28;20154;-68
2021/12/18 01:57:58;;;;;;;56.40;30.35;;;3.60;82.20;;;1.42;94.52;97975.88;4949995;28;20043;-67
2021/12/18 02:00:35;;;;;;;51.67;29.98;;;3.50;82.40;;;1.41;95.24;97974.22;4933763;28;20084;-68
2021/12/18 02:03:02;;;;;;;51.75;29.30;;;3.50;82.40;;;1.42;94.97;97962.94;4976982;23;20064;-66
2021/12/18 02:05:28;;;;;;;51.80;29.00;;;3.60;82.50;;;1.42;95.08;97960.34;4945284;28;20463;-67
2021/12/18 02:07:53;;;;;;;46.60;27.40;;;3.50;82.50;;;1.41;94.59;97959.50;5014234;28;20141;-66
2021/12/18 02:10:22;;;;;;;44.28;27.52;;;3.50;82.00;;;1.39;94.79;97957.91;5004478;28;20030;-66
2021/12/18 02:13:00;;;;;;;47.40;27.27;;;3.50;82.00;;;1.38;94.42;97958.84;5003548;28;20042;-66
2021/12/18 02:21:18;;;;;;;41.70;25.48;;;3.40;82.40;;;1.33;94.88;97966.03;4975600;28;20112;-66
2021/12/18 02:23:44;;;;;;;41.17;25.30;;;3.40;82.20;;;1.36;94.60;97971.91;4978823;28;20402;-66
2021/12/18 02:26:11;;;;;;;41.10;24.90;;;3.50;82.00;;;1.36;94.90;97971.91;5001555;28;20282;-67
2021/12/18 02:28:37;;;;;;;42.08;25.35;;;3.50;82.10;;;1.34;94.47;97973.72;5004932;28;20117;-66
2021/12/18 02:31:02;;;;;;;46.83;27.77;;;3.50;82.20;;;1.30;94.68;97967.03;5003233;28;20033;-66
2021/12/18 02:33:28;;;;;;;47.78;26.73;;;3.40;82.30;;;1.31;94.72;97973.06;4972091;28;20062;-66
2021/12/18 02:35:56;;;;;;;47.80;26.73;;;3.40;82.50;;;1.31;94.69;97957.50;4971270;28;20060;-66
2021/12/18 02:38:31;;;;;;;45.88;26.23;;;3.40;82.60;;;1.33;95.15;97966.03;4961451;28;20073;-67
2021/12/18 02:43:32;;;;;;;47.83;26.67;;;3.50;82.40;;;1.37;95.14;97963.19;4988721;28;20369;-67
2021/12/18 02:46:06;;;;;;;48.72;26.90;;;3.50;82.40;;;1.39;95.21;97947.53;4988873;28;20031;-66
2021/12/18 02:48:39;;;;;;;50.53;28.48;;;3.50;82.30;;;1.38;94.99;97949.31;5006862;28;20026;-66
2021/12/18 02:51:06;;;;;;;49.85;28.10;;;3.50;82.50;;;1.37;95.30;97944.22;4998884;28;20030;-66
2021/12/18 02:53:33;;;;;;;48.40;27.58;;;3.60;82.60;;;1.37;95.07;97942.44;4970578;28;20041;-66
2021/12/18 02:56:04;;;;;;;49.75;28.10;;;3.50;82.50;;;1.38;95.13;97938.09;5005203;28;20121;-66
2021/12/18 02:58:30;;;;;;;49.05;28.55;;;3.50;82.70;;;1.39;95.57;97939.78;4997423;28;20029;-66
2021/12/18 03:00:56;;;;;;;50.25;28.08;;;3.60;82.80;;;1.36;95.72;97929.53;4975710;28;20043;-66
2021/12/18 03:03:26;;;;;;;46.90;27.45;;;3.50;82.60;;;1.37;95.23;97923.47;5010597;28;20405;-66
2021/12/18 03:06:08;;;;;;;50.72;27.85;;;3.50;82.60;;;1.39;95.74;97926.81;4985855;28;20099;-66
2021/12/18 03:08:59;;;;;;;53.28;28.27;;;3.50;82.50;;;1.39;95.80;97929.41;4986537;28;20497;-66
2021/12/18 03:27:18;;;;;;;52.65;26.88;;;3.60;82.90;;;1.38;95.78;97919.94;5006361;28;20065;-66
2021/12/18 03:29:43;;;;;;;56.53;29.40;;;3.60;82.70;;;1.40;95.37;97926.72;4972254;28;20132;-67
2021/12/18 03:32:09;;;;;;;55.63;29.40;;;3.60;82.70;;;1.40;95.65;97915.50;5004510;28;20127;-66
2021/12/18 03:34:35;;;;;;;55.60;29.48;;;3.60;82.50;;;1.39;95.01;97904.31;4987201;28;20035;-66
2021/12/18 03:37:02;;;;;;;60.13;32.72;;;3.60;82.60;;;1.37;95.61;97905.31;4987751;28;20041;-66
2021/12/18 03:39:27;;;;;;;57.80;28.77;;;3.60;82.50;;;1.37;95.82;97915.69;5007180;28;20493;-66
2021/12/18 03:41:53;;;;;;;68.75;35.72;;;3.50;82.30;;;1.35;95.83;97917.50;4975970;28;20097;-66
2021/12/18 03:44:20;;;;;;;57.65;30.38;;;3.60;82.40;;;1.36;95.90;97919.16;5003405;28;20038;-67
2021/12/18 03:46:45;;;;;;;96.03;55.40;;;3.50;82.60;;;1.37;95.92;97923.47;4993271;28;20326;-66
2021/12/18 03:49:11;;;;;;;100.60;52.03;;;3.50;82.90;;;1.40;97.11;97923.28;5005465;28;20037;-66
2021/12/18 03:51:37;;;;;;;91.63;48.10;;;3.60;83.80;;;1.42;97.04;97916.25;4970907;28;20113;-66
2021/12/18 03:54:03;;;;;;;52.53;29.50;;;3.60;83.40;;;1.39;96.22;97908.66;4982015;28;20105;-66
2021/12/18 03:56:29;;;;;;;49.10;26.10;;;3.50;82.90;;;1.37;96.22;97910.50;4998795;28;20417;-66
2021/12/18 03:58:54;;;;;;;44.75;23.73;;;3.40;82.80;;;1.31;95.66;97916.00;4968919;28;20312;-66
2021/12/18 04:01:20;;;;;;;44.35;24.77;;;3.30;82.60;;;1.27;95.33;97919.72;4986585;28;20031;-66
2021/12/18 04:03:46;;;;;;;47.65;25.52;;;3.30;82.80;;;1.25;96.16;97916.38;4986645;28;20073;-65
2021/12/18 04:06:12;;;;;;;45.72;25.42;;;3.30;82.80;;;1.27;95.47;97917.13;4991385;28;20049;-66
2021/12/18 04:08:37;;;;;;;42.40;23.45;;;3.40;82.70;;;1.23;95.69;97912.09;5012728;28;20041;-66
2021/12/18 04:11:03;;;;;;;42.88;24.85;;;3.40;82.40;;;1.21;95.62;97915.72;4993278;28;20108;-66
2021/12/18 04:13:30;;;;;;;44.03;24.58;;;3.40;82.40;;;1.22;95.41;97923.41;4992580;28;20398;-66
2021/12/18 04:15:56;;;;;;;47.13;26.05;;;3.40;82.60;;;1.22;95.38;97926.00;4975291;28;20042;-66
2021/12/18 04:18:22;;;;;;;46.28;25.40;;;3.40;82.70;;;1.22;95.97;97928.59;4974433;28;20454;-66
2021/12/18 04:20:47;;;;;;;46.30;25.13;;;3.40;82.70;;;1.24;95.61;97928.50;5003920;28;20061;-66
2021/12/18 04:23:13;;;;;;;43.67;25.35;;;3.40;82.50;;;1.22;95.79;97932.94;5009394;28;20157;-66
2021/12/18 04:25:40;;;;;;;69.22;38.90;;;3.30;82.60;;;1.25;95.46;97934.50;5008398;28;20046;-66
2021/12/18 04:28:06;;;;;;;81.22;43.72;;;3.40;82.80;;;1.26;95.69;97929.25;4995773;28;20109;-66
2021/12/18 04:30:31;;;;;;;67.28;35.72;;;3.40;83.20;;;1.31;95.75;97931.56;5002847;28;20477;-65
2021/12/18 04:32:57;;;;;;;48.92;27.23;;;3.50;82.90;;;1.31;95.83;97936.75;4994310;28;20041;-68
2021/12/18 04:35:23;;;;;;;49.47;26.15;;;3.50;82.60;;;1.33;95.49;97937.50;4999454;28;20030;-68
2021/12/18 04:37:49;;;;;;;47.50;26.90;;;3.50;82.50;;;1.32;96.03;97941.00;5000497;28;20509;-67
2021/12/18 04:40:14;;;;;;;47.83;24.33;;;3.50;82.40;;;1.28;95.41;97937.75;4990643;28;20060;-69
2021/12/18 04:42:40;;;;;;;44.72;24.52;;;3.40;82.10;;;1.28;95.74;97936.94;5004849;28;20042;-67
2021/12/18 04:45:06;;;;;;;41.83;22.55;;;3.40;82.30;;;1.27;95.64;97945.63;4996646;28;20034;-67
2021/12/18 04:47:32;;;;;;;39.20;22.15;;;3.40;82.10;;;1.26;95.62;97939.63;5008032;28;20037;-66
2021/12/18 04:49:58;;;;;;;34.85;20.48;;;3.50;82.10;;;1.31;95.66;97934.16;5007213;28;20869;-66
2021/12/18 04:52:24;;;;;;;31.13;19.08;;;3.50;81.80;;;1.32;94.90;97936.66;5004618;28;20427;-66
2021/12/18 04:54:50;;;;;;;34.25;21.10;;;3.50;81.20;;;1.35;95.34;97935.66;5007564;28;20057;-68
2021/12/18 04:57:16;;;;;;;40.90;23.73;;;3.50;81.20;;;1.36;94.50;97939.91;5010196;28;20124;-66
2021/12/18 04:59:44;;;;;;;40.42;24.80;;;3.60;81.50;;;1.36;95.18;97939.91;5000586;28;20476;-67
2021/12/18 05:02:11;;;;;;;40.97;23.42;;;3.50;81.10;;;1.34;94.57;97940.00;4995827;28;20046;-67
2021/12/18 05:04:37;;;;;;;37.78;23.40;;;3.50;81.30;;;1.35;94.54;97940.84;4972114;28;20061;-67
2021/12/18 05:07:03;;;;;;;44.28;27.05;;;3.50;81.40;;;1.35;94.53;97938.25;4973319;28;20121;-67
2021/12/18 05:09:29;;;;;;;79.07;43.13;;;3.50;81.60;;;1.35;95.41;97927.88;4993780;28;20061;-67
2021/12/18 05:11:55;;;;;;;54.60;31.75;;;3.60;82.60;;;1.37;95.76;97936.44;5001043;28;20046;-67
2021/12/18 05:14:22;;;;;;;42.85;24.65;;;3.60;82.30;;;1.36;95.06;97939.91;5007637;28;20571;-67
2021/12/18 05:16:48;;;;;;;41.97;24.35;;;3.50;82.10;;;1.35;95.08;97938.25;4991720;28;20029;-67
2021/12/18 05:19:14;;;;;;;42.60;23.35;;;3.50;82.00;;;1.32;95.02;97943.59;4991245;28;20038;-67
2021/12/18 05:21:39;;;;;;;41.95;24.40;;;3.40;82.10;;;1.33;95.58;97940.09;4964981;28;20026;-67
2021/12/18 05:24:06;;;;;;;44.80;24.70;;;3.50;82.30;;;1.34;95.21;97942.59;5009325;28;20061;-67
2021/12/18 05:26:32;;;;;;;34.53;21.00;;;3.50;82.00;;;1.30;94.88;97937.69;5008411;28;20180;-67
2021/12/18 05:28:57;;;;;;;34.70;20.38;;;3.50;81.80;;;1.31;95.00;97942.78;4992351;28;20397;-66
2021/12/18 05:31:23;;;;;;;35.17;21.02;;;3.50;81.80;;;1.31;95.10;97947.97;4989991;28;20030;-70
2021/12/18 05:33:52;;;;;;;33.08;20.55;;;3.50;81.60;;;1.31;95.46;97941.94;4991475;28;20595;-66
2021/12/18 05:39:11;;;;;;;38.55;21.55;;;3.40;81.70;;;1.30;95.10;97945.44;5000017;28;20517;-67
2021/12/18 05:41:37;;;;;;;38.97;22.58;;;3.50;81.90;;;1.30;94.85;97945.44;4976004;28;20022;-67
2021/12/18 05:44:03;;;;;;;40.38;21.95;;;3.50;82.00;;;1.31;94.79;97941.94;4974968;28;20041;-69
2021/12/18 05:46:29;;;;;;;37.35;21.55;;;3.50;81.80;;;1.29;95.14;97949.81;5008124;28;20109;-67
2021/12/18 05:48:55;;;;;;;35.22;21.42;;;3.40;81.80;;;1.26;95.16;97939.63;4960051;28;20061;-67
2021/12/18 05:51:21;;;;;;;36.40;22.35;;;3.40;81.70;;;1.29;94.74;97951.56;4976226;28;20458;-67
2021/12/18 05:53:46;;;;;;;35.30;21.17;;;3.40;81.90;;;1.26;94.78;97954.34;4975510;28;20172;-67
2021/12/18 05:56:12;;;;;;;35.80;21.25;;;3.40;81.70;;;1.25;94.76;97948.31;4988126;28;20105;-68
2021/12/18 05:58:38;;;;;;;39.13;22.30;;;3.30;82.10;;;1.26;94.97;97944.78;4988748;28;20445;-67
2021/12/18 06:01:04;;;;;;;40.75;23.83;;;3.40;82.10;;;1.27;95.70;97941.28;4979838;28;20057;-67
2021/12/18 06:03:30;;;;;;;37.95;22.45;;;3.50;82.20;;;1.29;95.92;97944.63;4991354;28;20117;-66
2021/12/18 06:05:55;;;;;;;34.28;20.40;;;3.40;82.30;;;1.29;95.03;97944.63;5008364;28;20038;-67
2021/12/18 06:08:21;;;;;;;34.10;19.98;;;3.40;81.90;;;1.31;95.40;97947.13;4999118;28;20129;-67
2021/12/18 06:10:47;;;;;;;34.15;19.00;;;3.50;82.20;;;1.33;95.03;97950.47;4972469;28;20060;-66
2021/12/18 06:13:13;;;;;;;30.02;19.40;;;3.40;81.90;;;1.30;95.07;97953.22;4988439;28;20027;-66
2021/12/18 06:15:38;;;;;;;28.17;17.23;;;3.40;81.90;;;1.30;95.21;97955.81;4956149;28;20038;-66
2021/12/18 06:18:04;;;;;;;26.25;16.50;;;3.40;81.60;;;1.29;95.29;97969.72;4972228;28;20421;-67
2021/12/18 06:20:30;;;;;;;24.10;15.38;;;3.40;81.50;;;1.29;95.31;97969.72;4997461;28;20057;-66
2021/12/18 06:22:56;;;;;;;22.67;14.90;;;3.40;81.40;;;1.27;94.41;97961.19;5009042;28;20116;-66
2021/12/18 06:25:22;;;;;;;21.88;14.23;;;3.40;81.00;;;1.26;93.89;97954.34;5008185;28;20038;-66
2021/12/18 06:27:48;;;;;;;23.35;14.90;;;3.40;80.60;;;1.27;94.37;97967.19;4991283;28;20585;-67
2021/12/18 06:30:15;;;;;;;19.85;14.10;;;3.40;80.50;;;1.29;94.19;97957.59;4991137;28;20076;-66
2021/12/18 06:32:41;;;;;;;26.13;16.30;;;3.40;80.40;;;1.30;93.27;97955.81;4999414;28;20038;-66
2021/12/18 06:35:08;;;;;;;24.67;14.95;;;3.40;80.50;;;1.29;93.75;97943.78;4989491;28;20323;-66
2021/12/18 06:37:33;;;;;;;21.85;14.80;;;3.40;80.70;;;1.30;93.57;97950.63;4971831;28;20034;-67
2021/12/18 06:40:00;;;;;;;23.17;15.38;;;3.50;80.60;;;1.31;93.90;97947.97;4989586;28;20100;-67
2021/12/18 06:42:26;;;;;;;23.00;15.82;;;3.50;80.50;;;1.31;94.00;97941.94;4995257;28;20109;-66
2021/12/18 06:44:51;;;;;;;22.95;15.35;;;3.50;80.50;;;1.32;93.76;97941.84;4989240;28;20034;-66
2021/12/18 06:47:17;;;;;;;42.03;26.70;;;3.50;80.40;;;1.31;93.62;97941.94;4995140;28;20045;-66
2021/12/18 06:49:43;;;;;;;24.05;16.02;;;3.50;81.50;;;1.30;93.69;97941.09;5008366;28;20038;-66
2021/12/18 06:52:09;;;;;;;23.70;16.08;;;3.50;80.70;;;1.31;93.50;97941.94;4974042;28;20034;-67
2021/12/18 06:54:34;;;;;;;22.90;15.35;;;3.60;80.50;;;1.31;93.46;97944.53;4987610;28;20046;-66
2021/12/18 06:57:02;;;;;;;25.58;15.95;;;3.50;80.40;;;1.31;93.34;97931.56;4987827;28;20038;-67
2021/12/18 06:59:28;;;;;;;25.77;15.45;;;3.50;80.60;;;1.31;94.15;97944.53;4987702;28;20117;-67
2021/12/18 07:01:54;;;;;;;25.20;16.15;;;3.50;80.60;;;1.34;93.97;97937.41;4987686;28;20060;-67
2021/12/18 07:04:20;;;;;;;24.55;15.90;;;3.50;80.60;;;1.32;93.98;97943.59;4995365;28;20198;-67
2021/12/18 07:06:46;;;;;;;22.52;14.95;;;3.50;80.60;;;1.29;93.87;97934.25;5000962;28;20093;-67
2021/12/18 07:09:11;;;;;;;21.05;14.48;;;3.50;80.70;;;1.27;93.96;97945.63;5007272;28;20174;-67
2021/12/18 07:11:37;;;;;;;24.80;15.13;;;3.40;80.80;;;1.27;93.18;97935.25;4990848;28;20025;-67
2021/12/18 07:14:03;;;;;;;22.13;15.32;;;3.40;80.90;;;1.27;93.71;97940.44;5006890;28;20523;-67
2021/12/18 07:16:29;;;;;;;19.70;13.85;;;3.30;80.90;;;1.22;92.93;97941.53;5008387;28;20550;-67
2021/12/18 07:18:54;;;;;;;21.95;14.88;;;3.30;80.50;;;1.19;93.29;97939.13;5004911;28;20041;-67
2021/12/18 07:21:20;;;;;;;24.88;16.08;;;3.30;80.60;;;1.21;93.15;97937.28;4971400;28;20042;-67
2021/12/18 07:23:46;;;;;;;23.88;15.65;;;3.30;80.80;;;1.21;93.83;97937.28;4954836;28;20056;-66
2021/12/18 07:26:12;;;;;;;21.35;14.40;;;3.30;80.70;;;1.20;92.68;97938.19;5003436;28;20034;-66
2021/12/18 07:28:39;;;;;;;21.17;14.10;;;3.30;80.40;;;1.17;92.83;97935.78;4987546;28;20584;-67
2021/12/18 07:31:04;;;;;;;28.48;18.17;;;3.20;80.40;;;1.14;93.39;97935.13;4998331;28;20381;-68
2021/12/18 07:33:30;;;;;;;36.40;22.35;;;3.20;80.90;;;1.16;93.97;97939.31;4987937;28;20046;-66
2021/12/18 07:35:56;;;;;;;30.05;20.08;;;3.30;81.30;;;1.20;93.67;97934.78;5005110;28;20058;-67
2021/12/18 07:38:21;;;;;;;25.42;16.90;;;3.40;80.90;;;1.21;93.82;97941.63;5005640;28;20081;-67
2021/12/18 07:40:47;;;;;;;28.98;18.25;;;3.40;80.50;;;1.17;92.63;97935.78;4989359;28;20125;-66
2021/12/18 07:43:13;;;;;;;28.05;17.75;;;3.40;80.30;;;1.18;93.11;97944.41;5002958;28;20037;-68
2021/12/18 07:45:39;;;;;;;22.42;15.15;;;3.30;80.50;;;1.18;93.34;97947.00;5009857;28;20530;-68
2021/12/18 07:48:05;;;;;;;23.17;14.95;;;3.40;80.10;;;1.17;92.72;97951.34;4983603;28;20030;-67
2021/12/18 07:50:31;;;;;;;18.77;12.68;;;3.20;79.90;;;1.13;92.72;97951.56;5004788;28;20354;-65
2021/12/18 07:52:57;;;;;;;19.85;13.48;;;3.30;79.90;;;1.11;92.55;97953.41;5003052;28;20045;-69
2021/12/18 07:55:23;;;;;;;20.98;13.82;;;3.30;79.90;;;1.13;92.82;97954.16;5016723;28;20096;-69
2021/12/18 07:57:51;;;;;;;22.75;14.00;;;3.30;79.90;;;1.14;93.03;97956.69;4970670;28;20045;-69
2021/12/18 08:00:17;;;;;;;17.58;12.80;;;3.40;80.00;;;1.17;92.14;97961.72;4990453;28;20510;-68
2021/12/18 08:02:43;;;;;;;19.38;12.57;;;3.30;79.50;;;1.16;92.94;97956.63;5005679;28;20037;-68
2021/12/18 08:05:09;;;;;;;18.60;12.77;;;3.30;79.50;;;1.15;92.62;97958.38;5007169;28;20370;-69
2021/12/18 08:07:35;;;;;;;20.17;13.93;;;3.20;79.70;;;1.15;92.76;97953.19;5010088;28;20038;-69
2021/12/18 08:10:01;;;;;;;20.77;14.25;;;3.20;79.90;;;1.14;92.20;97950.69;5010424;28;20605;-69
2021/12/18 08:12:26;;;;;;;21.65;14.02;;;3.30;80.00;;;1.15;92.46;97955.78;5000859;28;20145;-67
2021/12/18 08:14:55;;;;;;;19.50;13.98;;;3.30;80.00;;;1.16;92.68;97948.84;4982766;28;20042;-68
2021/12/18 08:17:21;;;;;;;19.48;13.40;;;3.30;79.70;;;1.18;91.99;97952.19;5021042;28;20136;-67
2021/12/18 08:19:47;;;;;;;19.73;13.48;;;3.30;79.40;;;1.16;92.80;97952.25;5001635;28;20111;-67
2021/12/18 08:22:12;;;;;;;21.38;13.73;;;3.40;79.80;;;1.19;92.20;97959.88;5006980;28;20034;-70
2021/12/18 08:24:38;;;;;;;19.52;13.75;;;3.40;79.90;;;1.20;92.60;97956.34;4992701;28;20498;-70
2021/12/18 08:27:04;;;;;;;20.70;14.25;;;3.40;79.70;;;1.19;92.87;97953.84;4999576;28;20167;-69
2021/12/18 08:29:30;;;;;;;18.65;13.25;;;3.40;79.50;;;1.22;92.15;97964.88;4991725;28;20035;-70
2021/12/18 08:31:55;;;;;;;18.48;13.00;;;3.50;79.10;;;1.25;92.51;97955.25;4995103;28;20049;-70
2021/12/18 08:34:21;;;;;;;17.23;12.48;;;3.50;79.10;;;1.23;92.36;97963.94;5010129;28;20095;-69
2021/12/18 08:36:47;;;;;;;18.23;12.40;;;3.50;79.00;;;1.29;91.34;97961.94;4974645;28;20121;-67
2021/12/18 08:39:13;;;;;;;18.70;13.55;;;3.50;79.00;;;1.24;91.69;97954.41;5007677;28;20173;-68
2021/12/18 08:41:39;;;;;;;17.55;12.35;;;3.50;78.70;;;1.23;91.65;97953.59;4999838;28;20549;-67
2021/12/18 08:44:05;;;;;;;19.15;13.43;;;3.50;79.00;;;1.28;91.80;97962.84;4980414;28;20042;-69
2021/12/18 08:46:31;;;;;;;26.67;17.30;;;3.50;78.70;;;1.29;91.61;97955.00;4984586;28;20102;-69
2021/12/18 08:48:57;;;;;;;51.65;31.77;;;3.60;79.10;;;1.31;92.25;97952.31;4996353;28;20052;-69
2021/12/18 08:51:22;;;;;;;20.10;13.63;;;3.60;79.50;;;1.29;91.09;97955.00;4978759;28;20034;-69
2021/12/18 08:53:48;;;;;;;22.00;13.60;;;3.50;78.30;;;1.36;91.28;97960.66;4994236;28;20054;-69
2021/12/18 08:56:14;;;;;;;21.77;14.52;;;3.60;78.60;;;1.36;91.79;97965.84;4996612;28;20113;-69
2021/12/18 08:58:40;;;;;;;19.75;13.63;;;3.60;78.70;;;1.36;91.94;97961.53;4991099;28;20081;-69
2021/12/18 09:01:05;;;;;;;24.83;15.60;;;3.60;78.80;;;1.38;91.86;97961.44;4995931;28;20425;-67
2021/12/18 09:03:31;;;;;;;20.77;13.80;;;3.60;79.10;;;1.38;92.10;97964.84;5007817;28;20061;-67
2021/12/18 09:05:57;;;;;;;21.38;13.50;;;3.60;78.80;;;1.37;91.32;97952.00;5001588;28;20373;-69
2021/12/18 09:08:23;;;;;;;22.67;14.57;;;3.60;78.50;;;1.36;91.29;97950.28;5007974;28;20127;-68
2021/12/18 09:10:50;;;;;;;22.08;14.80;;;3.60;78.40;;;1.40;91.32;97954.41;5006607;28;20054;-65
2021/12/18 09:13:16;;;;;;;24.30;15.45;;;3.70;78.70;;;1.42;91.80;97955.16;5024702;28;20516;-66
2021/12/18 09:15:42;;;;;;;18.77;12.60;;;3.70;78.50;;;1.47;91.31;97963.50;4997660;28;20048;-67
2021/12/18 09:18:09;;;;;;;22.10;15.20;;;3.80;78.90;;;1.46;91.45;97967.00;5002696;28;20046;-67
2021/12/18 09:20:34;;;;;;;21.67;14.73;;;3.70;78.40;;;1.46;91.80;97960.06;4981518;28;20124;-67
2021/12/18 09:23:01;;;;;;;22.92;14.88;;;3.70;78.40;;;1.47;91.46;97959.16;5000981;28;20064;-67
2021/12/18 09:25:27;;;;;;;22.77;14.52;;;3.70;78.50;;;1.42;91.16;97965.53;5007156;28;20046;-68
2021/12/18 09:27:56;;;;;;;25.58;16.42;;;3.60;78.30;;;1.41;91.07;97958.66;4990557;28;20521;-67
2021/12/18 09:30:22;;;;;;;26.48;16.50;;;3.60;78.60;;;1.42;91.02;97955.16;4996590;28;20030;-68
2021/12/18 09:32:47;;;;;;;25.33;15.77;;;3.70;78.40;;;1.45;91.03;97955.81;4988679;28;20378;-67
2021/12/18 09:35:13;;;;;;;24.30;15.40;;;3.70;78.50;;;1.47;91.22;97953.13;5021246;28;20509;-67
2021/12/18 09:37:39;;;;;;;25.33;16.98;;;3.80;78.60;;;1.50;91.43;97953.78;4974423;28;20395;-67
2021/12/18 09:40:06;;;;;;;25.33;16.90;;;3.80;78.60;;;1.54;91.47;97954.44;5003990;28;20037;-68
2021/12/18 09:42:32;;;;;;;24.33;16.00;;;3.90;78.60;;;1.56;91.36;97956.94;4971649;28;20041;-67
2021/12/18 09:44:58;;;;;;;26.77;17.15;;;3.90;78.00;;;1.58;91.40;97955.09;4990385;28;20034;-67
2021/12/18 09:47:23;;;;;;;34.95;23.42;;;3.90;78.40;;;1.62;91.22;97956.63;5004249;28;20103;-67
2021/12/18 09:49:49;;;;;;;32.40;21.20;;;4.00;78.60;;;1.63;90.94;97953.94;4988162;28;20467;-67
2021/12/18 09:52:15;;;;;;;26.88;16.80;;;4.00;78.20;;;1.65;90.96;97946.06;4959175;28;20501;-68
2021/12/18 09:54:41;;;;;;;26.25;16.85;;;4.00;77.80;;;1.67;90.82;97939.03;4976129;28;20042;-67
2021/12/18 09:57:08;;;;;;;25.40;15.85;;;4.00;77.80;;;1.67;90.80;97947.63;4989716;28;20034;-65
2021/12/18 09:59:36;;;;;;;26.23;17.35;;;3.90;77.50;;;1.69;91.34;97932.81;5000406;28;20053;-68
2021/12/18 10:02:01;;;;;;;26.30;17.15;;;4.00;78.00;;;1.68;90.84;97932.91;4978990;28;20058;-65
2021/12/18 10:04:32;;;;;;;25.10;16.35;;;3.90;77.80;;;1.71;91.04;97930.13;4985614;28;20038;-67
2021/12/18 10:06:59;;;;;;;26.40;17.23;;;4.00;78.40;;;1.71;90.82;97923.19;5024926;28;20046;-67
2021/12/18 10:09:25;;;;;;;26.75;16.63;;;3.90;77.60;;;1.71;90.60;97925.78;4978152;28;20046;-67
2021/12/18 10:11:55;;;;;;;27.25;17.25;;;4.00;77.80;;;1.72;90.68;97922.25;5005396;28;20041;-67
2021/12/18 10:14:37;;;;;;;27.92;18.35;;;4.00;77.90;;;1.71;90.57;97920.59;4973487;28;20037;-68
2021/12/18 10:17:05;;;;;;;29.90;18.45;;;4.00;78.10;;;1.73;90.31;97923.91;4991974;28;20050;-68
2021/12/18 10:19:36;;;;;;;25.33;17.55;;;4.00;78.40;;;1.75;90.49;97911.69;4999467;28;20133;-67
2021/12/18 10:22:08;;;;;;;28.67;18.58;;;4.00;78.20;;;1.73;90.75;97908.34;4977190;28;20031;-70
2021/12/18 10:24:37;;;;;;;27.05;17.65;;;4.00;78.00;;;1.73;90.80;97918.72;4981988;28;20025;-65
2021/12/18 10:27:19;;;;;;;58.83;37.50;;;4.10;78.00;;;1.76;90.78;97913.38;5009115;28;20037;-67
2021/12/18 10:29:45;;;;;;;35.65;22.33;;;4.10;78.80;;;1.80;91.35;97922.63;4988444;28;20538;-65
2021/12/18 10:32:17;;;;;;;33.60;21.70;;;4.20;78.30;;;1.81;90.59;97911.34;4991202;28;20131;-67
2021/12/18 10:34:49;;;;;;;;;;;4.10;78.10;;;1.83;90.77;97909.50;4988195;28;20417;-65
2021/12/18 10:37:33;;;;;;;30.77;18.98;;;4.10;77.80;;;1.83;90.79;97913.84;4988678;28;19918;-68
2021/12/18 10:40:19;;;;;;;29.40;18.67;;;4.10;78.00;;;1.83;90.19;97908.66;4994900;28;20038;-67
2021/12/18 10:42:46;;;;;;;28.90;20.02;;;4.10;78.10;;;1.84;90.85;97911.16;5000211;28;21542;-67
2021/12/18 10:45:12;;;;;;;32.20;19.65;;;4.20;78.00;;;1.88;91.03;97904.03;4999895;28;20429;-67
2021/12/18 10:48:05;;;;;;;29.92;19.90;;;4.20;78.20;;;1.92;90.92;97915.06;5008758;28;20065;-67
2021/12/18 10:50:40;;;;;;;30.52;19.45;;;4.20;77.90;;;1.95;90.71;97922.66;5007244;28;20041;-66
2021/12/18 10:53:24;;;;;;;30.20;19.30;;;4.30;77.60;;;1.97;90.31;97910.44;4993332;28;20038;-67
2021/12/18 10:55:58;;;;;;;27.85;18.75;;;4.30;77.60;;;1.95;90.08;97909.69;5006363;28;20073;-67
2021/12/18 10:58:36;;;;;;;29.05;19.17;;;4.20;77.60;;;1.95;90.04;97896.72;4977273;28;20124;-67
2021/12/18 11:01:12;;;;;;;29.77;19.60;;;4.30;77.60;;;1.95;90.41;97891.53;5004951;28;20583;-68
2021/12/18 11:03:46;;;;;;;29.95;19.48;;;4.30;77.60;;;1.96;90.12;97888.84;4989951;28;20509;-67
2021/12/18 11:06:28;;;;;;;29.45;19.48;;;4.30;77.50;;;1.99;89.70;97883.44;4987091;28;20034;-65
2021/12/18 11:09:08;;;;;;;30.27;18.88;;;4.30;77.50;;;2.01;89.69;97885.97;4989472;28;20038;-68